sensor_id;sensor_type;location;lat;lon;timestamp;P1;durP1;ratioP1;P2;durP2;ratioP2
4646;SDS011;2336;47.822;7.564;2023-02-13T00:00:57;20.73;;;18.47;;
4646;SDS011;2336;47.822;7.564;2023-02-13T00:03:24;23.67;;;20.17;;
4646;SDS011;2336;47.822;7.564;2023-02-13T00:05:51;24.70;;;20.90;;
4646;SDS011;2336;47.822;7.564;2023-02-13T00:08:19;23.77;;;20.90;;
4646;SDS011;2336;47.822;7.564;2023-02-13T00:10:45;26.20;;;21.27;;
4646;SDS011;2336;47.822;7.564;2023-02-13T00:13:12;30.20;;;21.20;;
4646;SDS011;2336;47.822;7.564;2023-02-13T00:15:39;24.67;;;20.30;;
4646;SDS011;2336;47.822;7.564;2023-02-13T00:18:06;24.73;;;20.40;;
4646;SDS011;2336;47.822;7.564;2023-02-13T00:20:32;23.47;;;19.40;;
4646;SDS011;2336;47.822;7.564;2023-02-13T00:22:59;24.90;;;20.57;;
4646;SDS011;2336;47.822;7.564;2023-02-13T00:25:27;24.10;;;19.87;;
4646;SDS011;2336;47.822;7.564;2023-02-13T00:27:54;24.47;;;19.70;;
4646;SDS011;2336;47.822;7.564;2023-02-13T00:30:21;23.40;;;19.43;;
4646;SDS011;2336;47.822;7.564;2023-02-13T00:32:48;26.53;;;20.53;;
4646;SDS011;2336;47.822;7.564;2023-02-13T00:35:14;24.67;;;20.60;;
4646;SDS011;2336;47.822;7.564;2023-02-13T00:37:41;24.93;;;20.50;;
4646;SDS011;2336;47.822;7.564;2023-02-13T00:40:08;28.47;;;22.80;;
4646;SDS011;2336;47.822;7.564;2023-02-13T00:42:37;21.80;;;19.47;;
4646;SDS011;2336;47.822;7.564;2023-02-13T00:45:04;23.23;;;20.03;;
4646;SDS011;2336;47.822;7.564;2023-02-13T00:47:30;22.33;;;19.77;;
4646;SDS011;2336;47.822;7.564;2023-02-13T00:49:57;27.30;;;20.77;;
4646;SDS011;2336;47.822;7.564;2023-02-13T00:52:24;24.23;;;19.60;;
4646;SDS011;2336;47.822;7.564;2023-02-13T00:54:50;23.83;;;19.40;;
4646;SDS011;2336;47.822;7.564;2023-02-13T00:57:17;21.97;;;19.03;;
4646;SDS011;2336;47.822;7.564;2023-02-13T00:59:45;22.77;;;19.33;;
4646;SDS011;2336;47.822;7.564;2023-02-13T01:02:12;22.23;;;18.73;;
4646;SDS011;2336;47.822;7.564;2023-02-13T01:04:38;21.97;;;18.77;;
4646;SDS011;2336;47.822;7.564;2023-02-13T01:07:05;21.33;;;19.10;;
4646;SDS011;2336;47.822;7.564;2023-02-13T01:09:32;24.40;;;20.30;;
4646;SDS011;2336;47.822;7.564;2023-02-13T01:11:59;21.93;;;19.43;;
4646;SDS011;2336;47.822;7.564;2023-02-13T01:14:25;21.53;;;17.97;;
4646;SDS011;2336;47.822;7.564;2023-02-13T01:16:53;22.87;;;18.57;;
4646;SDS011;2336;47.822;7.564;2023-02-13T01:19:20;24.80;;;19.60;;
4646;SDS011;2336;47.822;7.564;2023-02-13T01:21:47;21.10;;;18.53;;
4646;SDS011;2336;47.822;7.564;2023-02-13T01:24:13;22.40;;;18.30;;
4646;SDS011;2336;47.822;7.564;2023-02-13T01:26:40;25.50;;;20.13;;
4646;SDS011;2336;47.822;7.564;2023-02-13T01:29:07;22.67;;;19.57;;
4646;SDS011;2336;47.822;7.564;2023-02-13T01:31:34;23.23;;;19.30;;
4646;SDS011;2336;47.822;7.564;2023-02-13T01:34:02;27.03;;;20.27;;
4646;SDS011;2336;47.822;7.564;2023-02-13T01:36:29;22.97;;;19.70;;
4646;SDS011;2336;47.822;7.564;2023-02-13T01:38:56;23.40;;;19.87;;
4646;SDS011;2336;47.822;7.564;2023-02-13T01:41:24;24.97;;;20.30;;
4646;SDS011;2336;47.822;7.564;2023-02-13T01:43:52;23.30;;;20.30;;
4646;SDS011;2336;47.822;7.564;2023-02-13T01:46:21;21.40;;;18.90;;
4646;SDS011;2336;47.822;7.564;2023-02-13T01:48:53;25.53;;;20.13;;
4646;SDS011;2336;47.822;7.564;2023-02-13T01:51:26;24.13;;;20.20;;
4646;SDS011;2336;47.822;7.564;2023-02-13T01:53:57;21.90;;;18.33;;
4646;SDS011;2336;47.822;7.564;2023-02-13T01:56:26;22.13;;;18.37;;
4646;SDS011;2336;47.822;7.564;2023-02-13T01:58:57;22.30;;;18.43;;
4646;SDS011;2336;47.822;7.564;2023-02-13T02:01:26;19.97;;;17.53;;
4646;SDS011;2336;47.822;7.564;2023-02-13T02:03:54;20.13;;;17.67;;
4646;SDS011;2336;47.822;7.564;2023-02-13T02:06:26;19.90;;;17.53;;
4646;SDS011;2336;47.822;7.564;2023-02-13T02:08:56;19.17;;;16.90;;
4646;SDS011;2336;47.822;7.564;2023-02-13T02:11:29;22.07;;;16.87;;
4646;SDS011;2336;47.822;7.564;2023-02-13T02:14:00;20.23;;;17.13;;
4646;SDS011;2336;47.822;7.564;2023-02-13T02:16:28;24.20;;;18.33;;
4646;SDS011;2336;47.822;7.564;2023-02-13T02:18:56;24.80;;;17.10;;
4646;SDS011;2336;47.822;7.564;2023-02-13T02:21:44;18.30;;;16.37;;
4646;SDS011;2336;47.822;7.564;2023-02-13T02:30:32;22.70;;;19.10;;
4646;SDS011;2336;47.822;7.564;2023-02-13T02:33:14;21.07;;;17.30;;
4646;SDS011;2336;47.822;7.564;2023-02-13T02:35:49;19.48;;;17.00;;
4646;SDS011;2336;47.822;7.564;2023-02-13T02:38:30;21.73;;;18.10;;
4646;SDS011;2336;47.822;7.564;2023-02-13T02:41:08;21.03;;;17.73;;
4646;SDS011;2336;47.822;7.564;2023-02-13T02:44:07;22.87;;;18.70;;
4646;SDS011;2336;47.822;7.564;2023-02-13T02:46:48;23.70;;;18.23;;
4646;SDS011;2336;47.822;7.564;2023-02-13T02:49:41;21.00;;;17.50;;
4646;SDS011;2336;47.822;7.564;2023-02-13T02:52:27;22.67;;;18.63;;
4646;SDS011;2336;47.822;7.564;2023-02-13T02:55:00;19.13;;;16.60;;
4646;SDS011;2336;47.822;7.564;2023-02-13T02:57:32;21.67;;;19.07;;
4646;SDS011;2336;47.822;7.564;2023-02-13T03:00:16;22.10;;;17.57;;
4646;SDS011;2336;47.822;7.564;2023-02-13T03:03:12;23.40;;;17.87;;
4646;SDS011;2336;47.822;7.564;2023-02-13T03:06:02;24.60;;;20.50;;
4646;SDS011;2336;47.822;7.564;2023-02-13T03:08:37;23.60;;;19.27;;
4646;SDS011;2336;47.822;7.564;2023-02-13T03:11:23;23.10;;;18.40;;
4646;SDS011;2336;47.822;7.564;2023-02-13T03:14:07;22.07;;;18.37;;
4646;SDS011;2336;47.822;7.564;2023-02-13T03:16:36;21.10;;;17.90;;
4646;SDS011;2336;47.822;7.564;2023-02-13T03:19:21;20.47;;;17.40;;
4646;SDS011;2336;47.822;7.564;2023-02-13T03:22:20;20.20;;;16.23;;
4646;SDS011;2336;47.822;7.564;2023-02-13T03:24:58;21.93;;;17.90;;
4646;SDS011;2336;47.822;7.564;2023-02-13T03:27:33;23.53;;;17.87;;
4646;SDS011;2336;47.822;7.564;2023-02-13T03:30:25;20.37;;;17.80;;
4646;SDS011;2336;47.822;7.564;2023-02-13T03:33:05;25.00;;;18.87;;
4646;SDS011;2336;47.822;7.564;2023-02-13T03:35:41;21.58;;;17.52;;
4646;SDS011;2336;47.822;7.564;2023-02-13T03:38:32;23.43;;;17.13;;
4646;SDS011;2336;47.822;7.564;2023-02-13T03:41:08;22.20;;;17.63;;
4646;SDS011;2336;47.822;7.564;2023-02-13T03:43:48;22.35;;;18.65;;
4646;SDS011;2336;47.822;7.564;2023-02-13T03:46:24;20.15;;;17.70;;
4646;SDS011;2336;47.822;7.564;2023-02-13T03:48:52;22.73;;;17.80;;
4646;SDS011;2336;47.822;7.564;2023-02-13T03:51:38;23.90;;;18.37;;
4646;SDS011;2336;47.822;7.564;2023-02-13T03:54:14;22.53;;;16.97;;
4646;SDS011;2336;47.822;7.564;2023-02-13T03:56:43;20.92;;;18.27;;
4646;SDS011;2336;47.822;7.564;2023-02-13T03:59:29;25.00;;;18.48;;
4646;SDS011;2336;47.822;7.564;2023-02-13T04:02:01;20.63;;;17.38;;
4646;SDS011;2336;47.822;7.564;2023-02-13T04:04:37;19.25;;;16.38;;
4646;SDS011;2336;47.822;7.564;2023-02-13T04:07:11;20.50;;;17.57;;
4646;SDS011;2336;47.822;7.564;2023-02-13T04:09:54;20.05;;;16.73;;
4646;SDS011;2336;47.822;7.564;2023-02-13T04:12:25;18.90;;;15.73;;
4646;SDS011;2336;47.822;7.564;2023-02-13T04:14:57;18.30;;;15.50;;
4646;SDS011;2336;47.822;7.564;2023-02-13T04:17:29;16.70;;;14.90;;
4646;SDS011;2336;47.822;7.564;2023-02-13T04:20:00;18.43;;;15.53;;
4646;SDS011;2336;47.822;7.564;2023-02-13T04:22:27;18.73;;;16.70;;
4646;SDS011;2336;47.822;7.564;2023-02-13T04:24:55;19.20;;;16.00;;
4646;SDS011;2336;47.822;7.564;2023-02-13T04:27:21;19.60;;;16.40;;
4646;SDS011;2336;47.822;7.564;2023-02-13T04:29:50;21.77;;;16.67;;
4646;SDS011;2336;47.822;7.564;2023-02-13T04:32:17;17.10;;;14.38;;
4646;SDS011;2336;47.822;7.564;2023-02-13T04:34:43;18.37;;;14.77;;
4646;SDS011;2336;47.822;7.564;2023-02-13T04:37:10;22.97;;;15.97;;
4646;SDS011;2336;47.822;7.564;2023-02-13T04:39:37;17.70;;;15.23;;
4646;SDS011;2336;47.822;7.564;2023-02-13T04:42:05;16.83;;;14.07;;
4646;SDS011;2336;47.822;7.564;2023-02-13T04:44:31;17.90;;;15.20;;
4646;SDS011;2336;47.822;7.564;2023-02-13T04:46:58;18.50;;;15.90;;
4646;SDS011;2336;47.822;7.564;2023-02-13T04:49:25;17.60;;;14.93;;
4646;SDS011;2336;47.822;7.564;2023-02-13T04:51:51;16.35;;;14.60;;
4646;SDS011;2336;47.822;7.564;2023-02-13T04:54:18;16.33;;;14.23;;
4646;SDS011;2336;47.822;7.564;2023-02-13T04:56:45;16.60;;;14.80;;
4646;SDS011;2336;47.822;7.564;2023-02-13T04:59:13;18.27;;;15.63;;
4646;SDS011;2336;47.822;7.564;2023-02-13T05:01:39;17.67;;;14.75;;
4646;SDS011;2336;47.822;7.564;2023-02-13T05:04:06;18.88;;;15.73;;
4646;SDS011;2336;47.822;7.564;2023-02-13T05:06:33;19.47;;;16.57;;
4646;SDS011;2336;47.822;7.564;2023-02-13T05:08:59;21.57;;;16.20;;
4646;SDS011;2336;47.822;7.564;2023-02-13T05:11:26;18.75;;;15.45;;
4646;SDS011;2336;47.822;7.564;2023-02-13T05:13:53;16.63;;;14.60;;
4646;SDS011;2336;47.822;7.564;2023-02-13T05:16:21;17.98;;;15.05;;
4646;SDS011;2336;47.822;7.564;2023-02-13T05:18:48;16.60;;;14.90;;
4646;SDS011;2336;47.822;7.564;2023-02-13T05:21:19;19.20;;;17.10;;
4646;SDS011;2336;47.822;7.564;2023-02-13T05:24:03;25.17;;;19.53;;
4646;SDS011;2336;47.822;7.564;2023-02-13T05:26:30;22.02;;;17.73;;
4646;SDS011;2336;47.822;7.564;2023-02-13T05:28:57;22.07;;;18.30;;
4646;SDS011;2336;47.822;7.564;2023-02-13T05:31:43;19.67;;;15.83;;
4646;SDS011;2336;47.822;7.564;2023-02-13T05:34:09;23.30;;;17.87;;
4646;SDS011;2336;47.822;7.564;2023-02-13T05:36:36;23.63;;;18.97;;
4646;SDS011;2336;47.822;7.564;2023-02-13T05:39:03;24.80;;;19.57;;
4646;SDS011;2336;47.822;7.564;2023-02-13T05:41:30;41.67;;;27.97;;
4646;SDS011;2336;47.822;7.564;2023-02-13T05:43:57;51.40;;;35.13;;
4646;SDS011;2336;47.822;7.564;2023-02-13T05:46:24;70.37;;;41.57;;
4646;SDS011;2336;47.822;7.564;2023-02-13T05:48:52;96.87;;;52.07;;
4646;SDS011;2336;47.822;7.564;2023-02-13T05:51:19;111.57;;;60.67;;
4646;SDS011;2336;47.822;7.564;2023-02-13T05:53:46;128.10;;;66.90;;
4646;SDS011;2336;47.822;7.564;2023-02-13T05:56:13;119.00;;;61.90;;
4646;SDS011;2336;47.822;7.564;2023-02-13T05:58:39;101.40;;;54.70;;
4646;SDS011;2336;47.822;7.564;2023-02-13T06:01:06;125.33;;;66.27;;
4646;SDS011;2336;47.822;7.564;2023-02-13T06:03:33;121.07;;;62.07;;
4646;SDS011;2336;47.822;7.564;2023-02-13T06:06:01;90.13;;;49.77;;
4646;SDS011;2336;47.822;7.564;2023-02-13T06:08:28;59.73;;;35.30;;
4646;SDS011;2336;47.822;7.564;2023-02-13T06:10:54;58.83;;;35.03;;
4646;SDS011;2336;47.822;7.564;2023-02-13T06:13:21;37.00;;;24.20;;
4646;SDS011;2336;47.822;7.564;2023-02-13T06:15:48;26.57;;;20.70;;
4646;SDS011;2336;47.822;7.564;2023-02-13T06:18:15;27.23;;;20.03;;
4646;SDS011;2336;47.822;7.564;2023-02-13T06:20:42;25.40;;;20.50;;
4646;SDS011;2336;47.822;7.564;2023-02-13T06:23:10;23.20;;;19.37;;
4646;SDS011;2336;47.822;7.564;2023-02-13T06:25:37;21.90;;;18.70;;
4646;SDS011;2336;47.822;7.564;2023-02-13T06:28:04;21.20;;;18.07;;
4646;SDS011;2336;47.822;7.564;2023-02-13T06:30:31;30.43;;;22.00;;
4646;SDS011;2336;47.822;7.564;2023-02-13T06:32:58;26.60;;;22.60;;
4646;SDS011;2336;47.822;7.564;2023-02-13T06:35:25;25.03;;;21.57;;
4646;SDS011;2336;47.822;7.564;2023-02-13T06:37:53;21.70;;;19.37;;
4646;SDS011;2336;47.822;7.564;2023-02-13T06:40:21;26.30;;;16.27;;
4646;SDS011;2336;47.822;7.564;2023-02-13T06:42:47;20.60;;;17.47;;
4646;SDS011;2336;47.822;7.564;2023-02-13T06:45:14;21.67;;;18.10;;
4646;SDS011;2336;47.822;7.564;2023-02-13T06:47:41;23.00;;;18.97;;
4646;SDS011;2336;47.822;7.564;2023-02-13T06:50:09;20.60;;;18.40;;
4646;SDS011;2336;47.822;7.564;2023-02-13T06:52:37;21.07;;;18.30;;
4646;SDS011;2336;47.822;7.564;2023-02-13T06:55:04;21.50;;;18.70;;
4646;SDS011;2336;47.822;7.564;2023-02-13T06:57:32;21.93;;;17.70;;
4646;SDS011;2336;47.822;7.564;2023-02-13T06:59:59;19.03;;;17.00;;
4646;SDS011;2336;47.822;7.564;2023-02-13T07:02:29;22.00;;;18.63;;
4646;SDS011;2336;47.822;7.564;2023-02-13T07:04:56;24.33;;;19.43;;
4646;SDS011;2336;47.822;7.564;2023-02-13T07:07:23;23.27;;;18.70;;
4646;SDS011;2336;47.822;7.564;2023-02-13T07:09:50;24.40;;;18.70;;
4646;SDS011;2336;47.822;7.564;2023-02-13T07:12:16;21.13;;;18.13;;
4646;SDS011;2336;47.822;7.564;2023-02-13T07:14:45;20.33;;;18.03;;
4646;SDS011;2336;47.822;7.564;2023-02-13T07:17:11;22.60;;;18.67;;
4646;SDS011;2336;47.822;7.564;2023-02-13T07:19:38;29.37;;;21.27;;
4646;SDS011;2336;47.822;7.564;2023-02-13T07:22:05;25.17;;;21.53;;
4646;SDS011;2336;47.822;7.564;2023-02-13T07:24:31;21.60;;;18.47;;
4646;SDS011;2336;47.822;7.564;2023-02-13T07:26:59;22.30;;;18.70;;
4646;SDS011;2336;47.822;7.564;2023-02-13T07:29:26;21.57;;;17.87;;
4646;SDS011;2336;47.822;7.564;2023-02-13T07:31:54;20.23;;;17.07;;
4646;SDS011;2336;47.822;7.564;2023-02-13T07:34:21;23.03;;;19.50;;
4646;SDS011;2336;47.822;7.564;2023-02-13T07:36:47;21.53;;;18.53;;
4646;SDS011;2336;47.822;7.564;2023-02-13T07:39:14;23.37;;;19.10;;
4646;SDS011;2336;47.822;7.564;2023-02-13T07:41:41;23.70;;;18.00;;
4646;SDS011;2336;47.822;7.564;2023-02-13T07:44:07;22.03;;;18.03;;
4646;SDS011;2336;47.822;7.564;2023-02-13T07:46:34;40.37;;;23.67;;
4646;SDS011;2336;47.822;7.564;2023-02-13T07:49:02;32.50;;;22.20;;
4646;SDS011;2336;47.822;7.564;2023-02-13T07:51:29;30.93;;;21.20;;
4646;SDS011;2336;47.822;7.564;2023-02-13T07:53:56;30.50;;;20.40;;
4646;SDS011;2336;47.822;7.564;2023-02-13T07:56:22;36.13;;;22.27;;
4646;SDS011;2336;47.822;7.564;2023-02-13T07:58:49;41.87;;;24.93;;
4646;SDS011;2336;47.822;7.564;2023-02-13T08:01:16;35.83;;;22.40;;
4646;SDS011;2336;47.822;7.564;2023-02-13T08:03:46;40.03;;;24.80;;
4646;SDS011;2336;47.822;7.564;2023-02-13T08:06:17;41.20;;;25.07;;
4646;SDS011;2336;47.822;7.564;2023-02-13T08:08:44;40.93;;;25.57;;
4646;SDS011;2336;47.822;7.564;2023-02-13T08:11:17;43.93;;;25.87;;
4646;SDS011;2336;47.822;7.564;2023-02-13T08:14:06;43.13;;;25.57;;
4646;SDS011;2336;47.822;7.564;2023-02-13T08:16:33;39.40;;;24.50;;
4646;SDS011;2336;47.822;7.564;2023-02-13T08:18:59;36.30;;;24.57;;
4646;SDS011;2336;47.822;7.564;2023-02-13T08:21:27;35.23;;;24.27;;
4646;SDS011;2336;47.822;7.564;2023-02-13T08:23:54;39.20;;;25.30;;
4646;SDS011;2336;47.822;7.564;2023-02-13T08:26:21;47.37;;;29.23;;
4646;SDS011;2336;47.822;7.564;2023-02-13T08:28:48;49.97;;;32.50;;
4646;SDS011;2336;47.822;7.564;2023-02-13T08:31:14;50.90;;;36.40;;
4646;SDS011;2336;47.822;7.564;2023-02-13T08:33:41;40.30;;;26.77;;
4646;SDS011;2336;47.822;7.564;2023-02-13T08:36:08;34.93;;;23.77;;
4646;SDS011;2336;47.822;7.564;2023-02-13T08:38:36;34.43;;;23.00;;
4646;SDS011;2336;47.822;7.564;2023-02-13T08:41:03;32.57;;;21.90;;
4646;SDS011;2336;47.822;7.564;2023-02-13T08:43:30;28.30;;;20.77;;
4646;SDS011;2336;47.822;7.564;2023-02-13T08:45:56;29.10;;;21.23;;
4646;SDS011;2336;47.822;7.564;2023-02-13T08:48:23;35.53;;;23.30;;
4646;SDS011;2336;47.822;7.564;2023-02-13T08:50:50;30.50;;;20.87;;
4646;SDS011;2336;47.822;7.564;2023-02-13T08:53:17;34.10;;;22.83;;
4646;SDS011;2336;47.822;7.564;2023-02-13T08:55:51;38.20;;;23.87;;
4646;SDS011;2336;47.822;7.564;2023-02-13T08:58:18;35.70;;;24.10;;
4646;SDS011;2336;47.822;7.564;2023-02-13T09:00:45;30.80;;;22.40;;
4646;SDS011;2336;47.822;7.564;2023-02-13T09:03:11;30.10;;;21.07;;
4646;SDS011;2336;47.822;7.564;2023-02-13T09:05:38;35.23;;;22.60;;
4646;SDS011;2336;47.822;7.564;2023-02-13T09:08:05;28.20;;;20.73;;
4646;SDS011;2336;47.822;7.564;2023-02-13T09:10:35;27.83;;;19.00;;
4646;SDS011;2336;47.822;7.564;2023-02-13T09:13:04;27.40;;;20.30;;
4646;SDS011;2336;47.822;7.564;2023-02-13T09:15:31;29.70;;;20.10;;
4646;SDS011;2336;47.822;7.564;2023-02-13T09:17:58;52.23;;;33.80;;
4646;SDS011;2336;47.822;7.564;2023-02-13T09:20:24;40.60;;;25.60;;
4646;SDS011;2336;47.822;7.564;2023-02-13T09:22:51;30.60;;;22.63;;
4646;SDS011;2336;47.822;7.564;2023-02-13T09:25:19;27.93;;;20.53;;
4646;SDS011;2336;47.822;7.564;2023-02-13T09:27:46;28.40;;;20.17;;
4646;SDS011;2336;47.822;7.564;2023-02-13T09:30:14;30.30;;;21.40;;
4646;SDS011;2336;47.822;7.564;2023-02-13T09:32:47;31.30;;;20.67;;
4646;SDS011;2336;47.822;7.564;2023-02-13T09:35:15;33.50;;;24.63;;
4646;SDS011;2336;47.822;7.564;2023-02-13T09:37:42;33.40;;;24.50;;
4646;SDS011;2336;47.822;7.564;2023-02-13T09:40:14;28.97;;;21.27;;
4646;SDS011;2336;47.822;7.564;2023-02-13T09:42:43;28.37;;;21.13;;
4646;SDS011;2336;47.822;7.564;2023-02-13T09:45:11;30.90;;;22.40;;
4646;SDS011;2336;47.822;7.564;2023-02-13T09:47:42;33.67;;;22.23;;
4646;SDS011;2336;47.822;7.564;2023-02-13T09:50:11;30.53;;;21.90;;
4646;SDS011;2336;47.822;7.564;2023-02-13T09:52:42;35.90;;;26.93;;
4646;SDS011;2336;47.822;7.564;2023-02-13T09:55:13;40.40;;;30.10;;
4646;SDS011;2336;47.822;7.564;2023-02-13T09:57:42;44.00;;;34.23;;
4646;SDS011;2336;47.822;7.564;2023-02-13T10:00:17;34.80;;;28.40;;
4646;SDS011;2336;47.822;7.564;2023-02-13T10:02:52;33.77;;;24.47;;
4646;SDS011;2336;47.822;7.564;2023-02-13T10:05:42;36.07;;;24.80;;
4646;SDS011;2336;47.822;7.564;2023-02-13T10:08:23;29.53;;;21.17;;
4646;SDS011;2336;47.822;7.564;2023-02-13T10:11:01;31.47;;;22.00;;
4646;SDS011;2336;47.822;7.564;2023-02-13T10:16:34;26.33;;;20.33;;
4646;SDS011;2336;47.822;7.564;2023-02-13T10:19:05;25.73;;;19.73;;
4646;SDS011;2336;47.822;7.564;2023-02-13T10:21:43;25.53;;;18.90;;
4646;SDS011;2336;47.822;7.564;2023-02-13T10:24:16;26.67;;;19.83;;
4646;SDS011;2336;47.822;7.564;2023-02-13T10:26:52;25.87;;;19.33;;
4646;SDS011;2336;47.822;7.564;2023-02-13T10:29:22;30.10;;;21.13;;
4646;SDS011;2336;47.822;7.564;2023-02-13T10:32:16;30.33;;;20.60;;
4646;SDS011;2336;47.822;7.564;2023-02-13T10:34:47;32.87;;;23.90;;
4646;SDS011;2336;47.822;7.564;2023-02-13T10:37:18;29.87;;;21.00;;
4646;SDS011;2336;47.822;7.564;2023-02-13T10:39:47;30.93;;;21.83;;
4646;SDS011;2336;47.822;7.564;2023-02-13T10:42:19;34.30;;;22.60;;
4646;SDS011;2336;47.822;7.564;2023-02-13T10:44:51;28.00;;;20.90;;
4646;SDS011;2336;47.822;7.564;2023-02-13T10:47:35;30.73;;;20.80;;
4646;SDS011;2336;47.822;7.564;2023-02-13T10:50:20;31.97;;;22.20;;
4646;SDS011;2336;47.822;7.564;2023-02-13T10:52:55;30.20;;;23.47;;
4646;SDS011;2336;47.822;7.564;2023-02-13T10:58:38;33.63;;;22.10;;
4646;SDS011;2336;47.822;7.564;2023-02-13T11:01:13;28.40;;;21.07;;
4646;SDS011;2336;47.822;7.564;2023-02-13T11:03:45;29.90;;;22.27;;
4646;SDS011;2336;47.822;7.564;2023-02-13T11:06:25;34.57;;;23.80;;
4646;SDS011;2336;47.822;7.564;2023-02-13T11:08:52;35.83;;;24.90;;
4646;SDS011;2336;47.822;7.564;2023-02-13T11:11:27;36.13;;;24.63;;
4646;SDS011;2336;47.822;7.564;2023-02-13T11:14:06;31.20;;;23.37;;
4646;SDS011;2336;47.822;7.564;2023-02-13T11:16:38;37.53;;;26.20;;
4646;SDS011;2336;47.822;7.564;2023-02-13T11:19:14;33.93;;;23.80;;
4646;SDS011;2336;47.822;7.564;2023-02-13T11:21:43;30.37;;;23.80;;
4646;SDS011;2336;47.822;7.564;2023-02-13T11:24:18;33.47;;;24.40;;
4646;SDS011;2336;47.822;7.564;2023-02-13T11:26:49;30.00;;;23.33;;
4646;SDS011;2336;47.822;7.564;2023-02-13T11:29:19;32.90;;;25.00;;
4646;SDS011;2336;47.822;7.564;2023-02-13T11:32:00;30.50;;;23.07;;
4646;SDS011;2336;47.822;7.564;2023-02-13T11:34:31;27.77;;;20.70;;
4646;SDS011;2336;47.822;7.564;2023-02-13T11:39:50;33.80;;;26.03;;
4646;SDS011;2336;47.822;7.564;2023-02-13T11:42:19;30.10;;;22.70;;
4646;SDS011;2336;47.822;7.564;2023-02-13T11:44:51;30.47;;;22.50;;
4646;SDS011;2336;47.822;7.564;2023-02-13T11:47:28;29.50;;;21.50;;
4646;SDS011;2336;47.822;7.564;2023-02-13T11:50:02;30.50;;;22.40;;
4646;SDS011;2336;47.822;7.564;2023-02-13T11:52:31;29.30;;;22.10;;
4646;SDS011;2336;47.822;7.564;2023-02-13T11:55:00;31.50;;;22.57;;
4646;SDS011;2336;47.822;7.564;2023-02-13T11:57:30;30.67;;;21.47;;
4646;SDS011;2336;47.822;7.564;2023-02-13T11:59:58;27.80;;;21.30;;
4646;SDS011;2336;47.822;7.564;2023-02-13T12:02:27;30.43;;;23.43;;
4646;SDS011;2336;47.822;7.564;2023-02-13T12:07:48;32.73;;;24.67;;
4646;SDS011;2336;47.822;7.564;2023-02-13T12:10:17;36.13;;;24.47;;
4646;SDS011;2336;47.822;7.564;2023-02-13T12:12:48;32.37;;;24.60;;
4646;SDS011;2336;47.822;7.564;2023-02-13T12:15:20;31.93;;;24.40;;
4646;SDS011;2336;47.822;7.564;2023-02-13T12:17:58;31.83;;;23.63;;
4646;SDS011;2336;47.822;7.564;2023-02-13T12:20:33;30.40;;;21.80;;
4646;SDS011;2336;47.822;7.564;2023-02-13T12:23:11;30.40;;;22.00;;
4646;SDS011;2336;47.822;7.564;2023-02-13T12:25:58;29.40;;;22.23;;
4646;SDS011;2336;47.822;7.564;2023-02-13T12:28:59;29.07;;;22.37;;
4646;SDS011;2336;47.822;7.564;2023-02-13T12:31:52;30.23;;;22.17;;
4646;SDS011;2336;47.822;7.564;2023-02-13T12:34:32;31.70;;;23.13;;
4646;SDS011;2336;47.822;7.564;2023-02-13T12:37:35;28.13;;;21.90;;
4646;SDS011;2336;47.822;7.564;2023-02-13T12:40:18;27.67;;;21.73;;
4646;SDS011;2336;47.822;7.564;2023-02-13T12:43:05;27.60;;;21.67;;
4646;SDS011;2336;47.822;7.564;2023-02-13T12:45:48;30.40;;;24.50;;
4646;SDS011;2336;47.822;7.564;2023-02-13T12:48:23;28.70;;;22.00;;
4646;SDS011;2336;47.822;7.564;2023-02-13T12:50:59;29.77;;;23.37;;
4646;SDS011;2336;47.822;7.564;2023-02-13T12:53:39;28.40;;;22.13;;
4646;SDS011;2336;47.822;7.564;2023-02-13T12:56:19;25.87;;;21.77;;
4646;SDS011;2336;47.822;7.564;2023-02-13T12:58:59;29.57;;;23.13;;
4646;SDS011;2336;47.822;7.564;2023-02-13T13:04:34;26.60;;;21.63;;
4646;SDS011;2336;47.822;7.564;2023-02-13T13:07:17;30.70;;;22.10;;
4646;SDS011;2336;47.822;7.564;2023-02-13T13:09:55;28.37;;;22.37;;
4646;SDS011;2336;47.822;7.564;2023-02-13T13:12:46;28.00;;;23.43;;
4646;SDS011;2336;47.822;7.564;2023-02-13T13:15:23;28.90;;;22.40;;
4646;SDS011;2336;47.822;7.564;2023-02-13T13:17:59;30.23;;;22.87;;
4646;SDS011;2336;47.822;7.564;2023-02-13T13:20:54;29.97;;;23.13;;
4646;SDS011;2336;47.822;7.564;2023-02-13T13:23:28;28.30;;;23.33;;
4646;SDS011;2336;47.822;7.564;2023-02-13T13:26:00;27.50;;;22.80;;
4646;SDS011;2336;47.822;7.564;2023-02-13T13:28:37;28.37;;;24.13;;
4646;SDS011;2336;47.822;7.564;2023-02-13T13:31:06;30.17;;;24.30;;
4646;SDS011;2336;47.822;7.564;2023-02-13T13:33:33;28.63;;;22.80;;
4646;SDS011;2336;47.822;7.564;2023-02-13T13:36:06;28.30;;;23.13;;
4646;SDS011;2336;47.822;7.564;2023-02-13T13:38:38;30.37;;;23.60;;
4646;SDS011;2336;47.822;7.564;2023-02-13T13:41:16;29.93;;;24.07;;
4646;SDS011;2336;47.822;7.564;2023-02-13T13:43:54;26.70;;;22.23;;
4646;SDS011;2336;47.822;7.564;2023-02-13T13:46:45;30.73;;;24.80;;
4646;SDS011;2336;47.822;7.564;2023-02-13T13:52:09;28.73;;;23.30;;
4646;SDS011;2336;47.822;7.564;2023-02-13T13:54:46;31.23;;;25.77;;
4646;SDS011;2336;47.822;7.564;2023-02-13T13:57:15;30.03;;;24.30;;
4646;SDS011;2336;47.822;7.564;2023-02-13T13:59:58;28.27;;;24.07;;
4646;SDS011;2336;47.822;7.564;2023-02-13T14:02:39;25.63;;;22.73;;
4646;SDS011;2336;47.822;7.564;2023-02-13T14:05:18;29.63;;;24.80;;
4646;SDS011;2336;47.822;7.564;2023-02-13T14:07:55;31.43;;;24.47;;
4646;SDS011;2336;47.822;7.564;2023-02-13T14:13:38;26.80;;;22.40;;
4646;SDS011;2336;47.822;7.564;2023-02-13T14:16:09;31.10;;;23.50;;
4646;SDS011;2336;47.822;7.564;2023-02-13T14:18:37;27.43;;;22.40;;
4646;SDS011;2336;47.822;7.564;2023-02-13T14:21:10;25.80;;;21.83;;
4646;SDS011;2336;47.822;7.564;2023-02-13T14:23:45;26.47;;;21.63;;
4646;SDS011;2336;47.822;7.564;2023-02-13T14:26:28;28.40;;;23.40;;
4646;SDS011;2336;47.822;7.564;2023-02-13T14:28:59;26.70;;;22.87;;
4646;SDS011;2336;47.822;7.564;2023-02-13T14:34:55;28.77;;;22.47;;
4646;SDS011;2336;47.822;7.564;2023-02-13T14:37:26;26.10;;;21.83;;
4646;SDS011;2336;47.822;7.564;2023-02-13T14:40:11;27.77;;;23.13;;
4646;SDS011;2336;47.822;7.564;2023-02-13T14:42:53;34.73;;;22.47;;
4646;SDS011;2336;47.822;7.564;2023-02-13T14:45:24;31.33;;;26.37;;
4646;SDS011;2336;47.822;7.564;2023-02-13T14:47:57;29.10;;;23.10;;
4646;SDS011;2336;47.822;7.564;2023-02-13T14:50:33;25.43;;;22.67;;
4646;SDS011;2336;47.822;7.564;2023-02-13T14:53:13;25.93;;;22.67;;
4646;SDS011;2336;47.822;7.564;2023-02-13T14:55:45;28.80;;;23.60;;
4646;SDS011;2336;47.822;7.564;2023-02-13T14:58:19;25.87;;;22.80;;
4646;SDS011;2336;47.822;7.564;2023-02-13T15:00:50;24.20;;;20.67;;
4646;SDS011;2336;47.822;7.564;2023-02-13T15:03:24;25.63;;;21.50;;
4646;SDS011;2336;47.822;7.564;2023-02-13T15:05:55;24.53;;;21.90;;
4646;SDS011;2336;47.822;7.564;2023-02-13T15:08:26;27.93;;;24.33;;
4646;SDS011;2336;47.822;7.564;2023-02-13T15:10:57;24.80;;;22.10;;
4646;SDS011;2336;47.822;7.564;2023-02-13T15:13:24;24.43;;;21.80;;
4646;SDS011;2336;47.822;7.564;2023-02-13T15:15:52;27.23;;;24.33;;
4646;SDS011;2336;47.822;7.564;2023-02-13T15:18:23;25.53;;;22.73;;
4646;SDS011;2336;47.822;7.564;2023-02-13T15:20:54;25.63;;;22.63;;
4646;SDS011;2336;47.822;7.564;2023-02-13T15:23:24;26.13;;;22.50;;
4646;SDS011;2336;47.822;7.564;2023-02-13T15:25:56;29.83;;;22.50;;
4646;SDS011;2336;47.822;7.564;2023-02-13T15:28:25;28.33;;;23.30;;
4646;SDS011;2336;47.822;7.564;2023-02-13T15:30:53;31.00;;;26.30;;
4646;SDS011;2336;47.822;7.564;2023-02-13T15:33:22;30.90;;;26.47;;
4646;SDS011;2336;47.822;7.564;2023-02-13T15:35:55;23.73;;;21.27;;
4646;SDS011;2336;47.822;7.564;2023-02-13T15:38:27;25.77;;;23.00;;
4646;SDS011;2336;47.822;7.564;2023-02-13T15:40:58;28.90;;;22.80;;
4646;SDS011;2336;47.822;7.564;2023-02-13T15:43:31;27.90;;;22.13;;
4646;SDS011;2336;47.822;7.564;2023-02-13T15:46:01;26.63;;;22.97;;